Menahga, MN (56464)

4:02 PM CST on December 09, 2016 (GMT -0600)
Park Rapids Municipal | | Change Station

Elev 1440 ft 46.90 °N, 95.07 °W | Updated 9 minutes ago

Overcast
Overcast
7 °F
Feels Like -6 °F
N
8
Wind Variable Wind from WNW

Today
High -- | Low -- °F
--% Chance of Precip.
Yesterday
High -- | Low -- °F
Precip. -- in
Pressure 30.56 in
Visibility 9.0 miles
Clouds Overcast 2800 ft
Windchill -6 °F
Dew Point -4 °F
Humidity 61%
Rainfall 0.00 in
Snow Depth Not available.
7:53 AM 4:32 PM
Waxing Gibbous, 77% visible
METAR KPKD 092153Z AUTO 29007KT 9SM OVC028 M14/M20 A3045 RMK AO2 SNB12E51 SLP348 P0000 T11391200
Pressure 30.56 in
Visibility 9.0 miles
Clouds Overcast 2800 ft
Windchill -6 °F
Dew Point -4 °F
Humidity 61%
Rainfall 0.00 in
Snow Depth Not available.
7:53 AM 4:32 PM
Waxing Gibbous, 77% visible
METAR KPKD 092153Z AUTO 29007KT 9SM OVC028 M14/M20 A3045 RMK AO2 SNB12E51 SLP348 P0000 T11391200

10-Day Weather Forecast

Almanac

Astronomy

Dec. 09, 2016 Rise Set
Actual Time
Civil Twilight
Nautical Twilight
Astronomical Twilight
Moon
Length of Visible Light
Length of Day
Tomorrow will be .
, % of the Moon is Illuminated

Today's Extremes

State Highs State Lows

Community

WunderPhotos

Upload Photos

1,956,535 photos uploaded!

WunderBlog® & News

Nearby

Air Quality

  Air Quality AQ Index Pollutant
Not available.

Snow Depth

Station Depth Elevation

Earthquake Activity

City Distance Mag. Time & Date
Minimum magnitude displayed is 2.5.

Coastal Water Temperatures

Place Temperature

Stations

Nearby Weather Stations

Station Location Temp. Windchill Dew Point Humidity Wind Precip. Elev Updated Type
                   

Watches & Warnings

There are currently no watches in effect.